createdAt,value
2022-11-24T00:02:00.969Z,13.12
2022-11-24T00:04:29.834Z,13.03
2022-11-24T00:06:58.509Z,13.00
2022-11-24T00:09:28.309Z,12.88
2022-11-24T00:11:58.343Z,13.05
2022-11-24T00:14:27.206Z,13.13
2022-11-24T00:16:56.487Z,13.09
2022-11-24T00:19:25.172Z,13.30
2022-11-24T00:21:53.810Z,13.27
2022-11-24T00:24:22.468Z,13.30
2022-11-24T00:26:51.142Z,13.34
2022-11-24T00:29:21.282Z,13.35
2022-11-24T00:31:50.336Z,13.24
2022-11-24T00:34:19.344Z,13.07
2022-11-24T00:36:47.968Z,13.29
2022-11-24T00:39:17.427Z,13.47
2022-11-24T00:41:46.794Z,13.56
2022-11-24T00:44:15.557Z,13.59
2022-11-24T00:46:45.793Z,13.56
2022-11-24T00:49:14.648Z,13.63
2022-11-24T00:51:43.325Z,13.69
2022-11-24T00:54:11.945Z,13.62
2022-11-24T00:56:40.656Z,13.60
2022-11-24T00:59:09.501Z,13.35
2022-11-24T01:01:39.156Z,13.21
2022-11-24T01:04:09.352Z,13.20
2022-11-24T01:06:38.345Z,13.27
2022-11-24T01:09:06.946Z,13.42
2022-11-24T01:11:50.968Z,13.52
2022-11-24T01:14:21.086Z,13.51
2022-11-24T01:16:49.912Z,13.19
2022-11-24T01:19:20.354Z,13.48
2022-11-24T01:21:49.355Z,13.38
2022-11-24T01:24:18.478Z,13.22
2022-11-24T01:26:47.250Z,13.36
2022-11-24T01:29:15.892Z,13.54
2022-11-24T01:31:44.526Z,13.53
2022-11-24T01:34:13.576Z,13.66
2022-11-24T01:36:43.675Z,13.42
2022-11-24T01:39:12.469Z,13.47
2022-11-24T01:41:41.411Z,13.46
2022-11-24T01:44:24.641Z,13.70
2022-11-24T01:46:56.958Z,13.86
2022-11-24T01:49:29.165Z,13.87
2022-11-24T01:52:05.507Z,13.80
2022-11-24T01:54:37.940Z,13.66
2022-11-24T01:57:11.685Z,13.67
2022-11-24T01:59:40.494Z,13.68
2022-11-24T02:02:10.125Z,13.65
2022-11-24T02:04:39.780Z,13.52
2022-11-24T02:07:10.304Z,13.54
2022-11-24T02:09:44.561Z,13.67
2022-11-24T02:12:13.243Z,13.65
2022-11-24T02:14:44.766Z,13.68
2022-11-24T02:17:13.527Z,13.63
2022-11-24T02:19:50.445Z,13.67
2022-11-24T02:22:27.948Z,13.74
2022-11-24T02:25:06.562Z,13.80
2022-11-24T02:27:36.990Z,13.85
2022-11-24T02:30:06.420Z,13.82
2022-11-24T02:32:35.460Z,13.78
2022-11-24T02:35:06.532Z,13.85
2022-11-24T02:37:35.133Z,13.70
2022-11-24T02:40:03.909Z,13.78
2022-11-24T02:42:39.533Z,13.75
2022-11-24T02:45:11.591Z,13.73
2022-11-24T02:47:40.346Z,13.71
2022-11-24T02:50:09.436Z,13.63
2022-11-24T02:52:38.069Z,13.61
2022-11-24T02:55:07.203Z,13.59
2022-11-24T02:57:37.264Z,13.49
2022-11-24T03:00:06.441Z,13.50
2022-11-24T03:02:35.234Z,13.60
2022-11-24T03:05:04.073Z,13.63
2022-11-24T03:07:32.734Z,13.62
2022-11-24T03:10:01.376Z,13.64
2022-11-24T03:12:30.004Z,13.66
2022-11-24T03:15:00.107Z,13.64
2022-11-24T03:17:28.722Z,13.69
2022-11-24T03:20:02.957Z,13.80
2022-11-24T03:22:33.138Z,13.86
2022-11-24T03:25:01.805Z,13.94
2022-11-24T03:27:31.719Z,13.86
2022-11-24T03:30:01.779Z,13.93
2022-11-24T03:32:30.422Z,13.87
2022-11-24T03:34:59.022Z,13.94
2022-11-24T03:37:28.307Z,13.94
2022-11-24T03:39:56.930Z,14.14
2022-11-24T03:42:31.088Z,14.18
2022-11-24T03:45:04.223Z,14.27
2022-11-24T03:47:51.098Z,14.18
2022-11-24T03:50:19.834Z,14.31
2022-11-24T03:52:48.524Z,14.41
2022-11-24T03:55:17.599Z,14.39
2022-11-24T03:57:46.225Z,14.45
2022-11-24T04:00:15.724Z,14.55
2022-11-24T04:02:44.401Z,14.54
2022-11-24T04:05:14.475Z,14.45
2022-11-24T04:07:43.280Z,14.33
2022-11-24T04:10:12.080Z,14.45
2022-11-24T04:12:45.565Z,14.51
2022-11-24T04:15:15.857Z,14.54
2022-11-24T04:17:44.409Z,14.62
2022-11-24T04:20:15.129Z,14.66
2022-11-24T04:22:44.411Z,14.63
2022-11-24T04:25:13.007Z,14.33
2022-11-24T04:27:41.471Z,14.29
2022-11-24T04:30:10.954Z,14.44
2022-11-24T04:32:39.549Z,14.38
2022-11-24T04:35:08.781Z,14.34
2022-11-24T04:37:39.011Z,14.59
2022-11-24T04:40:09.572Z,14.32
2022-11-24T04:42:38.090Z,14.51
2022-11-24T04:45:08.153Z,14.66
2022-11-24T04:47:36.715Z,14.15
2022-11-24T04:50:07.811Z,14.59
2022-11-24T04:52:36.335Z,14.70
2022-11-24T04:55:06.736Z,14.71
2022-11-24T04:57:35.881Z,14.81
2022-11-24T05:00:05.107Z,14.85
2022-11-24T05:05:37.302Z,14.83
2022-11-24T05:08:06.293Z,14.78
2022-11-24T05:10:40.205Z,14.70
2022-11-24T05:13:12.514Z,14.60
2022-11-24T05:15:42.733Z,14.64
2022-11-24T05:18:15.404Z,14.85
2022-11-24T05:20:45.884Z,14.85
2022-11-24T05:23:14.530Z,14.89
2022-11-24T05:25:47.604Z,14.62
2022-11-24T05:28:16.450Z,14.67
2022-11-24T05:30:45.609Z,14.65
2022-11-24T05:33:19.063Z,14.62
2022-11-24T05:35:49.165Z,14.67
2022-11-24T05:38:18.569Z,14.63
2022-11-24T05:40:48.366Z,14.66
2022-11-24T05:43:18.142Z,14.68
2022-11-24T05:45:46.846Z,14.80
2022-11-24T05:48:16.598Z,14.85
2022-11-24T05:50:45.616Z,14.80
2022-11-24T05:53:14.950Z,14.93
2022-11-24T05:55:44.151Z,14.85
2022-11-24T05:58:13.968Z,14.81
2022-11-24T06:00:42.584Z,14.89
2022-11-24T06:03:12.314Z,14.86
2022-11-24T06:05:40.939Z,14.71
2022-11-24T06:08:09.380Z,14.72
2022-11-24T06:10:37.789Z,14.65
2022-11-24T06:13:07.460Z,14.62
2022-11-24T06:15:37.882Z,14.77
2022-11-24T06:18:06.863Z,14.72
2022-11-24T06:20:35.291Z,14.87
2022-11-24T06:23:03.788Z,14.97
2022-11-24T06:25:32.593Z,15.01
2022-11-24T06:28:04.728Z,14.76
2022-11-24T06:30:33.250Z,14.74
2022-11-24T06:33:03.209Z,14.90
2022-11-24T06:35:31.668Z,14.99
2022-11-24T06:38:00.096Z,15.13
2022-11-24T06:40:28.523Z,15.06
2022-11-24T06:42:57.167Z,15.21
2022-11-24T06:45:25.935Z,15.32
2022-11-24T06:47:55.356Z,15.48
2022-11-24T06:50:29.214Z,15.45
2022-11-24T06:53:01.067Z,15.61
2022-11-24T06:55:29.493Z,15.68
2022-11-24T06:57:57.945Z,15.72
2022-11-24T07:00:29.434Z,15.75
2022-11-24T07:02:58.368Z,15.69
2022-11-24T07:05:28.753Z,15.74
2022-11-24T07:07:57.308Z,15.79
2022-11-24T07:10:25.749Z,15.76
2022-11-24T07:12:54.308Z,15.89
2022-11-24T07:15:23.089Z,15.97
2022-11-24T07:17:51.575Z,15.93
2022-11-24T07:20:20.224Z,15.89
2022-11-24T07:22:50.098Z,15.96
2022-11-24T07:25:18.569Z,15.84
2022-11-24T07:27:47.017Z,16.00
2022-11-24T07:30:15.752Z,16.01
2022-11-24T07:32:44.173Z,16.04
2022-11-24T07:35:12.729Z,16.07
2022-11-24T07:37:41.158Z,16.11
2022-11-24T07:40:12.913Z,15.93
2022-11-24T07:42:41.363Z,15.98
2022-11-24T07:45:10.625Z,16.07
2022-11-24T07:47:41.123Z,15.89
2022-11-24T07:50:11.426Z,16.04
2022-11-24T07:52:40.250Z,16.08
2022-11-24T07:55:11.497Z,16.16
2022-11-24T07:57:41.143Z,16.21
2022-11-24T08:00:11.093Z,16.26
2022-11-24T08:02:39.913Z,16.27
2022-11-24T08:05:09.284Z,16.41
2022-11-24T08:07:38.096Z,16.27
2022-11-24T08:10:07.796Z,16.47
2022-11-24T08:12:37.925Z,16.51
2022-11-24T08:15:10.873Z,16.56
2022-11-24T08:17:39.863Z,16.58
2022-11-24T08:20:10.066Z,16.59
2022-11-24T08:22:38.559Z,16.59
2022-11-24T08:25:08.036Z,16.58
2022-11-24T08:27:40.200Z,16.59
2022-11-24T08:30:10.304Z,16.65
2022-11-24T08:32:38.781Z,16.65
2022-11-24T08:35:14.034Z,16.65
2022-11-24T08:37:42.902Z,16.67
2022-11-24T08:40:12.854Z,16.62
2022-11-24T08:42:42.692Z,16.70
2022-11-24T08:45:20.420Z,16.44
2022-11-24T08:47:54.153Z,16.05
2022-11-24T08:50:23.022Z,15.90
2022-11-24T08:52:53.354Z,15.67
2022-11-24T08:55:22.488Z,15.75
2022-11-24T08:57:52.337Z,15.70
2022-11-24T09:00:23.507Z,15.72
2022-11-24T09:02:56.666Z,15.83
2022-11-24T09:05:50.638Z,15.88
2022-11-24T09:08:14.193Z,15.86
2022-11-24T09:10:43.244Z,15.83
2022-11-24T09:13:13.173Z,15.88
2022-11-24T09:15:41.881Z,15.96
2022-11-24T09:18:10.294Z,15.92
2022-11-24T09:20:38.806Z,15.87
2022-11-24T09:23:07.302Z,15.86
2022-11-24T09:25:35.929Z,15.81
2022-11-24T09:28:04.668Z,15.72
2022-11-24T09:30:34.503Z,15.75
2022-11-24T09:33:02.944Z,15.53
2022-11-24T09:35:31.340Z,15.66
2022-11-24T09:37:59.782Z,15.62
2022-11-24T09:40:28.408Z,15.66
2022-11-24T09:43:01.871Z,15.70
2022-11-24T09:48:40.682Z,15.67
2022-11-24T09:51:12.731Z,15.77
2022-11-24T09:53:45.821Z,15.71
2022-11-24T09:56:22.292Z,15.76
2022-11-24T09:58:52.440Z,15.81
2022-11-24T10:01:25.953Z,15.88
2022-11-24T10:03:56.982Z,15.77
2022-11-24T10:06:32.051Z,15.73
2022-11-24T10:09:34.339Z,15.83
2022-11-24T10:12:17.552Z,15.74
2022-11-24T10:15:18.968Z,15.72
2022-11-24T10:18:03.809Z,15.66
2022-11-24T10:20:50.972Z,15.83
2022-11-24T10:23:39.464Z,15.88
2022-11-24T10:26:13.995Z,15.83
2022-11-24T10:28:50.252Z,15.77
2022-11-24T10:31:25.029Z,15.73
2022-11-24T10:33:54.910Z,15.66
2022-11-24T10:36:33.405Z,15.87
2022-11-24T10:39:07.390Z,15.84
2022-11-24T10:41:44.276Z,15.98
2022-11-24T10:44:15.622Z,15.98
2022-11-24T10:46:44.700Z,15.82
2022-11-24T10:49:20.083Z,15.96
2022-11-24T10:51:59.565Z,16.11
2022-11-24T10:54:28.402Z,16.17
2022-11-24T10:56:57.358Z,16.15
2022-11-24T10:59:38.211Z,16.36
2022-11-24T11:02:37.180Z,16.38
2022-11-24T11:05:42.403Z,16.38
2022-11-24T11:08:19.929Z,16.37
2022-11-24T11:10:50.670Z,16.35
2022-11-24T11:13:24.595Z,16.37
2022-11-24T11:15:53.932Z,16.12
2022-11-24T11:18:23.295Z,16.11
2022-11-24T11:20:55.589Z,16.16
2022-11-24T11:23:28.717Z,16.25
2022-11-24T11:26:20.156Z,16.51
2022-11-24T11:31:15.535Z,16.75
2022-11-24T11:34:51.645Z,16.73
2022-11-24T11:37:23.015Z,16.78
2022-11-24T11:39:53.074Z,16.75
2022-11-24T11:43:00.144Z,17.04
2022-11-24T11:45:18.301Z,17.09
2022-11-24T11:47:51.681Z,17.04
2022-11-24T11:50:27.367Z,17.18
2022-11-24T11:53:11.533Z,16.90
2022-11-24T11:55:50.244Z,17.06
2022-11-24T11:58:49.315Z,16.92
2022-11-24T12:01:31.218Z,16.85
2022-11-24T12:04:14.754Z,16.89
2022-11-24T12:07:05.867Z,16.72
2022-11-24T12:09:50.568Z,16.50
2022-11-24T12:12:45.813Z,16.37
2022-11-24T12:15:23.921Z,16.43
2022-11-24T12:17:57.332Z,16.41
2022-11-24T12:20:41.726Z,16.29
2022-11-24T12:23:21.322Z,16.23
2022-11-24T12:25:56.707Z,16.44
2022-11-24T12:28:38.189Z,16.46
2022-11-24T12:31:08.411Z,16.25
2022-11-24T12:34:06.488Z,16.31
2022-11-24T12:36:50.832Z,16.29
2022-11-24T12:39:28.986Z,16.27
2022-11-24T12:42:10.374Z,16.23
2022-11-24T12:44:55.316Z,16.10
2022-11-24T12:47:32.109Z,16.18
2022-11-24T12:50:09.816Z,16.16
2022-11-24T12:52:42.834Z,16.15
2022-11-24T12:55:18.266Z,16.23
2022-11-24T12:57:55.943Z,16.25
2022-11-24T13:00:30.906Z,16.32
2022-11-24T13:03:20.697Z,16.32
2022-11-24T13:05:58.840Z,16.39
2022-11-24T13:08:29.288Z,16.47
2022-11-24T13:11:49.036Z,16.51
2022-11-24T13:14:22.462Z,16.52
2022-11-24T13:19:45.012Z,16.61
2022-11-24T13:22:18.182Z,16.69
2022-11-24T13:24:46.760Z,16.68
2022-11-24T13:27:29.725Z,16.73
2022-11-24T13:29:59.572Z,16.89
2022-11-24T13:33:01.744Z,16.95
2022-11-24T13:35:31.003Z,17.04
2022-11-24T13:37:59.468Z,17.27
2022-11-24T13:40:59.651Z,17.24
2022-11-24T13:43:32.840Z,17.36
2022-11-24T13:46:03.881Z,17.37
2022-11-24T13:49:00.317Z,17.32
2022-11-24T13:51:28.754Z,17.18
2022-11-24T13:54:00.978Z,17.07
2022-11-24T13:56:31.829Z,17.19
2022-11-24T13:59:03.689Z,17.22
2022-11-24T14:01:40.971Z,17.21
2022-11-24T14:04:30.534Z,17.11
2022-11-24T14:07:07.981Z,17.35
2022-11-24T14:09:42.174Z,17.42
2022-11-24T14:12:17.288Z,17.45
2022-11-24T14:14:47.678Z,17.22
2022-11-24T14:17:20.740Z,17.34
2022-11-24T14:19:51.237Z,17.45
2022-11-24T14:22:23.010Z,17.28
2022-11-24T14:24:56.568Z,17.33
2022-11-24T14:27:31.345Z,17.40
2022-11-24T14:30:01.848Z,17.26
2022-11-24T14:32:33.468Z,17.06
2022-11-24T14:35:02.140Z,17.25
2022-11-24T14:37:30.651Z,17.25
2022-11-24T14:39:59.114Z,17.21
2022-11-24T14:42:28.619Z,17.35
2022-11-24T14:44:59.423Z,17.46
2022-11-24T14:47:32.474Z,17.43
2022-11-24T14:50:15.130Z,17.60
2022-11-24T14:52:46.984Z,17.26
2022-11-24T14:55:29.515Z,17.46
2022-11-24T14:57:58.434Z,17.35
2022-11-24T15:00:30.391Z,17.58
2022-11-24T15:03:16.144Z,17.67
2022-11-24T15:05:58.497Z,17.76
2022-11-24T15:08:29.304Z,17.85
2022-11-24T15:11:00.490Z,17.76
2022-11-24T15:13:30.459Z,17.78
2022-11-24T15:16:03.663Z,17.90
2022-11-24T15:18:38.749Z,17.93
2022-11-24T15:21:11.757Z,18.01
2022-11-24T15:23:45.813Z,17.95
2022-11-24T15:26:35.512Z,17.84
2022-11-24T15:29:06.839Z,17.84
2022-11-24T15:31:35.396Z,17.84
2022-11-24T15:34:03.872Z,17.92
2022-11-24T15:36:33.934Z,17.90
2022-11-24T15:39:02.399Z,17.88
2022-11-24T15:41:32.532Z,18.05
2022-11-24T15:44:01.323Z,17.95
2022-11-24T15:46:31.114Z,17.82
2022-11-24T15:48:59.636Z,17.53
2022-11-24T15:51:28.414Z,17.55
2022-11-24T15:54:01.030Z,17.52
2022-11-24T15:56:33.597Z,17.20
2022-11-24T15:59:02.573Z,17.29
2022-11-24T16:01:32.757Z,17.31
2022-11-24T16:04:03.469Z,17.45
2022-11-24T16:06:31.970Z,17.48
2022-11-24T16:09:02.822Z,17.37
2022-11-24T16:11:31.288Z,17.36
2022-11-24T16:13:59.818Z,17.35
2022-11-24T16:16:28.347Z,17.37
2022-11-24T16:18:57.012Z,17.33
2022-11-24T16:21:25.492Z,17.35
2022-11-24T16:23:53.966Z,17.27
2022-11-24T16:26:23.780Z,17.23
2022-11-24T16:28:52.241Z,17.11
2022-11-24T16:31:20.815Z,17.06
2022-11-24T16:33:49.290Z,16.88
2022-11-24T16:36:17.706Z,16.68
2022-11-24T16:38:46.153Z,16.45
2022-11-24T16:41:16.058Z,16.29
2022-11-24T16:43:46.355Z,16.17
2022-11-24T16:46:20.521Z,16.10
2022-11-24T16:48:50.967Z,16.15
2022-11-24T16:51:21.388Z,16.12
2022-11-24T16:53:57.536Z,16.10
2022-11-24T16:56:26.179Z,16.00
2022-11-24T16:58:56.570Z,15.93
2022-11-24T17:01:26.109Z,15.84
2022-11-24T17:03:54.821Z,15.80
2022-11-24T17:06:23.884Z,15.81
2022-11-24T17:08:52.341Z,15.53
2022-11-24T17:11:23.056Z,15.72
2022-11-24T17:13:52.523Z,15.57
2022-11-24T17:16:24.340Z,15.71
2022-11-24T17:18:53.624Z,15.68
2022-11-24T17:21:23.762Z,15.50
2022-11-24T17:23:55.228Z,15.42
2022-11-24T17:26:23.894Z,15.50
2022-11-24T17:28:52.621Z,15.46
2022-11-24T17:31:25.943Z,15.47
2022-11-24T17:33:56.703Z,15.32
2022-11-24T17:36:25.799Z,15.30
2022-11-24T17:38:54.534Z,15.22
2022-11-24T17:41:23.973Z,15.22
2022-11-24T17:43:53.451Z,15.25
2022-11-24T17:46:24.177Z,15.24
2022-11-24T17:48:52.885Z,15.12
2022-11-24T17:51:22.850Z,15.15
2022-11-24T17:53:52.757Z,15.10
2022-11-24T17:56:23.745Z,15.09
2022-11-24T17:58:55.363Z,15.11
2022-11-24T18:01:26.258Z,15.01
2022-11-24T18:03:55.355Z,14.94
2022-11-24T18:06:25.636Z,14.94
2022-11-24T18:08:55.209Z,14.92
2022-11-24T18:11:30.600Z,14.94
2022-11-24T18:14:03.029Z,14.69
2022-11-24T18:16:34.322Z,14.60
2022-11-24T18:19:08.863Z,14.69
2022-11-24T18:21:38.955Z,14.71
2022-11-24T18:24:08.209Z,14.71
2022-11-24T18:26:36.766Z,14.73
2022-11-24T18:29:05.884Z,14.74
2022-11-24T18:31:36.443Z,14.74
2022-11-24T18:34:06.379Z,14.76
2022-11-24T18:36:35.639Z,14.61
2022-11-24T18:39:06.085Z,14.69
2022-11-24T18:41:34.958Z,14.71
2022-11-24T18:44:07.909Z,14.71
2022-11-24T18:46:38.946Z,14.62
2022-11-24T18:49:08.111Z,14.62
2022-11-24T18:51:36.795Z,14.68
2022-11-24T18:54:06.194Z,14.64
2022-11-24T18:56:34.770Z,14.67
2022-11-24T18:59:03.273Z,14.63
2022-11-24T19:01:32.438Z,14.63
2022-11-24T19:04:03.558Z,14.49
2022-11-24T19:06:34.017Z,14.49
2022-11-24T19:09:04.725Z,14.38
2022-11-24T19:11:35.479Z,14.34
2022-11-24T19:14:05.204Z,14.30
2022-11-24T19:16:34.245Z,14.39
2022-11-24T19:19:05.039Z,14.35
2022-11-24T19:21:37.269Z,14.30
2022-11-24T19:24:06.648Z,14.23
2022-11-24T19:26:36.038Z,14.23
2022-11-24T19:29:05.545Z,14.15
2022-11-24T19:31:35.143Z,14.12
2022-11-24T19:34:06.004Z,14.08
2022-11-24T19:36:34.783Z,14.04
2022-11-24T19:39:05.365Z,13.99
2022-11-24T19:41:34.741Z,14.00
2022-11-24T19:44:03.439Z,14.00
2022-11-24T19:46:32.059Z,13.99
2022-11-24T19:49:02.303Z,13.91
2022-11-24T19:51:34.331Z,13.94
2022-11-24T19:54:04.679Z,13.96
2022-11-24T19:56:36.046Z,13.95
2022-11-24T19:59:06.225Z,13.94
2022-11-24T20:01:38.273Z,13.79
2022-11-24T20:04:09.099Z,13.92
2022-11-24T20:06:41.741Z,13.91
2022-11-24T20:09:16.747Z,14.03
2022-11-24T20:11:46.223Z,14.05
2022-11-24T20:14:16.115Z,14.10
2022-11-24T20:16:46.739Z,14.12
2022-11-24T20:19:17.602Z,14.04
2022-11-24T20:21:49.460Z,13.96
2022-11-24T20:24:20.515Z,13.90
2022-11-24T20:26:51.571Z,14.03
2022-11-24T20:29:20.812Z,14.02
2022-11-24T20:31:51.790Z,13.94
2022-11-24T20:34:21.371Z,14.09
2022-11-24T20:36:52.920Z,14.15
2022-11-24T20:39:25.383Z,14.27
2022-11-24T20:41:54.596Z,14.31
2022-11-24T20:44:23.906Z,14.35
2022-11-24T20:46:52.362Z,14.48
2022-11-24T20:49:22.036Z,14.45
2022-11-24T20:51:54.640Z,14.47
2022-11-24T20:54:23.559Z,14.45
2022-11-24T20:56:52.385Z,14.53
2022-11-24T20:59:22.682Z,14.63
2022-11-24T21:01:54.219Z,14.53
2022-11-24T21:04:24.976Z,14.46
2022-11-24T21:06:55.147Z,14.47
2022-11-24T21:09:24.859Z,14.49
2022-11-24T21:11:54.826Z,14.49
2022-11-24T21:14:24.532Z,14.53
2022-11-24T21:16:53.140Z,14.51
2022-11-24T21:19:22.122Z,14.47
2022-11-24T21:21:50.658Z,14.46
2022-11-24T21:24:21.904Z,14.33
2022-11-24T21:26:52.876Z,14.42
2022-11-24T21:29:23.674Z,14.47
2022-11-24T21:31:52.727Z,14.53
2022-11-24T21:34:21.421Z,14.66
2022-11-24T21:36:49.974Z,14.52
2022-11-24T21:39:18.751Z,14.75
2022-11-24T21:41:49.046Z,14.76
2022-11-24T21:44:17.535Z,14.76
2022-11-24T21:46:51.108Z,14.76
2022-11-24T21:49:24.117Z,14.65
2022-11-24T21:51:55.964Z,14.72
2022-11-24T21:54:24.893Z,14.56
2022-11-24T21:56:55.937Z,14.58
2022-11-24T21:59:24.607Z,14.78
2022-11-24T22:01:53.365Z,14.71
2022-11-24T22:04:21.969Z,14.56
2022-11-24T22:06:50.499Z,14.58
2022-11-24T22:09:19.456Z,14.48
2022-11-24T22:11:49.486Z,14.50
2022-11-24T22:14:19.560Z,14.45
2022-11-24T22:16:48.345Z,14.55
2022-11-24T22:19:16.863Z,14.49
2022-11-24T22:21:45.392Z,14.46
2022-11-24T22:24:14.066Z,14.51
2022-11-24T22:26:42.530Z,14.50
2022-11-24T22:29:13.728Z,14.17
2022-11-24T22:31:43.954Z,14.48
2022-11-24T22:34:12.511Z,14.40
2022-11-24T22:36:40.928Z,14.29
2022-11-24T22:39:12.954Z,14.33
2022-11-24T22:41:41.451Z,14.05
2022-11-24T22:44:09.940Z,14.06
2022-11-24T22:46:38.463Z,13.97
2022-11-24T22:49:08.292Z,13.87
2022-11-24T22:51:40.505Z,13.83
2022-11-24T22:54:08.964Z,13.77
2022-11-24T22:56:37.409Z,13.83
2022-11-24T22:59:05.841Z,13.85
2022-11-24T23:01:35.179Z,13.96
2022-11-24T23:04:04.153Z,13.94
2022-11-24T23:06:38.833Z,14.03
2022-11-24T23:09:08.310Z,13.93
2022-11-24T23:11:39.734Z,13.97
2022-11-24T23:14:09.830Z,14.07
2022-11-24T23:16:38.642Z,14.04
2022-11-24T23:19:07.834Z,14.09
2022-11-24T23:21:39.517Z,14.10
2022-11-24T23:24:09.852Z,13.98
2022-11-24T23:26:40.785Z,14.08
2022-11-24T23:29:11.416Z,14.02
2022-11-24T23:31:41.039Z,13.89
2022-11-24T23:34:10.409Z,14.22
2022-11-24T23:36:40.791Z,14.20
2022-11-24T23:39:13.428Z,14.13
2022-11-24T23:41:42.436Z,14.18
2022-11-24T23:44:11.150Z,14.04
2022-11-24T23:46:39.856Z,14.11
2022-11-24T23:49:08.385Z,14.24
2022-11-24T23:51:36.850Z,14.16
2022-11-24T23:54:09.454Z,14.14
2022-11-24T23:56:38.104Z,14.29
2022-11-24T23:59:07.007Z,14.33
